• Join FlightAware (Why Join?)
  • Login
  • US Flag 
04:54AM EDT


 

Airport Tracker/Info


-or-


 

Live Flight TrackerFlight Track Log ✈ SWA2147 ✈ 06-Oct-2013 ✈ KOAK - KPHX

Flight Track Log - Related Links

Times and Time Zones

All times are in EDT time to prevent confusion due to time zone crossing. See the SWA2147 flight status page for this flight to view local times or setup timezone preferences in your user account.

Time Position Orientation Groundspeed Altitude Reporting Facility
EDT Latitude Longitude Course Direction KTS MPH feet Rate Location/Type
05:05PM 37.7333 -122.2500 302° West 158 182 1,100  Level Northern Cal TRACON
05:06PM 37.7667 -122.3167 302° West 228 262 3,200 2,520 Climbing Northern Cal TRACON
05:07PM 37.7500 -122.3667 247° West 236 272 6,000 3,120 Climbing Northern Cal TRACON
05:07PM 37.7192 -122.3831 203° Southwest 223 257 8,000 2,940 Climbing Oakland Center
05:08PM 37.6492 -122.3853 181° South 250 288 10,900 2,640 Climbing Oakland Center
05:09PM 37.5933 -122.2975 129° Southeast 314 361 13,500 2,700 Climbing Oakland Center
05:10PM 37.5294 -122.2086 132° Southeast 336 387 16,500 2,580 Climbing Oakland Center
05:11PM 37.4631 -122.1136 131° Southeast 356 410 18,900 1,680 Climbing Oakland Center
05:12PM 37.3786 -121.9925 131° Southeast 379 436 20,000 1,560 Climbing Oakland Center
05:13PM 37.3053 -121.8906 132° Southeast 391 450 22,200 2,160 Climbing Oakland Center
05:14PM 37.2322 -121.7831 130° Southeast 402 463 24,500 2,280 Climbing Oakland Center
05:15PM 37.1550 -121.6717 131° Southeast 417 480 26,900 1,980 Climbing Oakland Center
05:16PM 37.0753 -121.5608 132° Southeast 426 490 28,700 1,620 Climbing Oakland Center
05:17PM 36.9919 -121.4506 133° Southeast 433 498 30,300 1,560 Climbing Oakland Center
05:18PM 36.9089 -121.3319 131° Southeast 448 516 31,900 1,740 Climbing Oakland Center
05:19PM 36.8131 -121.2003 132° Southeast 456 525 33,900 1,680 Climbing Oakland Center
05:20PM 36.7278 -121.0828 132° Southeast 457 526 35,400 1,380 Climbing Oakland Center
05:22PM 36.6436 -120.9642 131° Southeast 457 526 36,800 1,200 Climbing Oakland Center
05:23PM 36.5581 -120.8458 132° Southeast 460 529 38,000 1,020 Climbing Oakland Center
05:24PM 36.4742 -120.7269 131° Southeast 459 528 39,000 480 Climbing Oakland Center
05:25PM 36.3711 -120.5875 133° Southeast 458 527 39,000  Level Oakland Center
05:26PM 36.2858 -120.4703 132° Southeast 457 526 39,000  Level Oakland Center
05:27PM 36.1994 -120.3550 133° Southeast 456 525 39,000  Level Oakland Center
05:28PM 36.1131 -120.2378 132° Southeast 459 528 39,000  Level Oakland Center
05:29PM 36.0269 -120.1194 132° Southeast 461 531 39,000  Level Oakland Center
05:30PM 35.9406 -120.0031 132° Southeast 460 529 39,000  Level Oakland Center
05:31PM 35.8439 -119.8994 139° Southeast 465 535 39,000  Level Oakland Center
05:32PM 35.7408 -119.8083 144° Southeast 455 524 39,000  Level Los Angeles Center
05:33PM 35.6533 -119.6886 132° Southeast 465 535 39,000  Level Los Angeles Center
05:34PM 35.5667 -119.5692 132° Southeast 467 537 39,000  Level Los Angeles Center
05:35PM 35.4794 -119.4483 132° Southeast 469 540 39,000  Level Los Angeles Center
05:36PM 35.3931 -119.3281 131° Southeast 469 540 39,000  Level Los Angeles Center
05:37PM 35.3347 -119.1833 116° Southeast 476 548 39,000  Level Los Angeles Center
05:38PM 35.2689 -119.0042 114° Southeast 480 552 39,000  Level Los Angeles Center
05:39PM 35.2156 -118.8561 114° Southeast 477 549 39,000  Level Los Angeles Center
05:40PM 35.1608 -118.7094 114° Southeast 476 548 39,000  Level Los Angeles Center
05:41PM 35.1036 -118.5625 115° Southeast 477 549 39,000  Level Los Angeles Center
05:42PM 35.0475 -118.4144 115° Southeast 476 548 39,000  Level Los Angeles Center
05:43PM 34.9928 -118.2678 114° Southeast 476 548 39,000  Level Los Angeles Center
05:44PM 34.9258 -118.0925 115° Southeast 478 550 39,000  Level Los Angeles Center
05:45PM 34.8697 -117.9469 115° Southeast 479 551 39,000  Level Los Angeles Center
05:46PM 34.8136 -117.8017 115° Southeast 480 552 39,000  Level Los Angeles Center
05:47PM 34.7586 -117.6550 114° Southeast 482 555 39,000  Level Los Angeles Center
05:48PM 34.7003 -117.5075 116° Southeast 488 562 39,000  Level Los Angeles Center
05:49PM 34.6325 -117.3311 115° Southeast 486 559 39,000  Level Los Angeles Center
05:50PM 34.5753 -117.1856 115° Southeast 482 555 39,000  Level Los Angeles Center
05:51PM 34.5189 -117.0386 115° Southeast 481 554 39,000  Level Los Angeles Center
05:52PM 34.4606 -116.8939 116° Southeast 481 554 39,000  Level Los Angeles Center
05:53PM 34.4042 -116.7483 115° Southeast 479 551 39,000  Level Los Angeles Center
05:54PM 34.3336 -116.5747 116° Southeast 482 555 39,000  Level Los Angeles Center
05:55PM 34.2797 -116.4272 114° Southeast 485 558 39,000  Level Los Angeles Center
05:56PM 34.2208 -116.2833 116° Southeast 479 551 39,000  Level Los Angeles Center
05:58PM 34.1633 -116.1383 116° Southeast 479 551 39,000  Level Los Angeles Center
05:59PM 34.1022 -115.9917 117° Southeast 477 549 39,000  Level Los Angeles Center
06:00PM 34.0447 -115.8464 115° Southeast 479 551 39,000  Level Los Angeles Center
06:01PM 33.9847 -115.7003 116° Southeast 484 557 39,000  Level Los Angeles Center
06:02PM 33.9128 -115.5267 116° Southeast 483 556 39,000  Level Los Angeles Center
06:03PM 33.8528 -115.3808 116° Southeast 486 559 39,000  Level Los Angeles Center
06:04PM 33.7925 -115.2364 117° Southeast 485 558 39,000  Level Los Angeles Center
06:05PM 33.7328 -115.0919 116° Southeast 484 557 39,000 -480 Level Los Angeles Center
06:06PM 33.6733 -114.9478 116° Southeast 482 555 38,100 -1,740 Descending Los Angeles Center
06:07PM 33.6133 -114.8058 117° Southeast 479 551 35,500 -2,700 Descending Los Angeles Center
06:08PM 33.5667 -114.6247 107° East 478 550 32,600 -2,460 Descending Los Angeles Center
06:09PM 33.5383 -114.4750 103° East 463 533 30,500 -2,040 Descending Los Angeles Center
06:10PM 33.5092 -114.3289 103° East 453 521 28,400 -1,920 Descending Los Angeles Center
06:11PM 33.4817 -114.1914 103° East 430 495 26,600 -1,560 Descending Los Angeles Center
06:12PM 33.4531 -114.0247 102° East 419 482 25,000 -780 Descending Albuquerque Center
06:13PM 33.4253 -113.8919 104° East 413 475 25,000  Level Albuquerque Center
06:14PM 33.3983 -113.7564 103° East 417 480 25,000 -660 Level Albuquerque Center
06:15PM 33.3719 -113.6292 104° East 416 479 23,800 -1,800 Descending Los Angeles Center
06:16PM 33.3447 -113.4964 104° East 400 460 21,600 -2,100 Descending Los Angeles Center
06:17PM 33.3181 -113.3697 104° East 392 451 19,500 -2,040 Descending Los Angeles Center
06:18PM 33.2878 -113.2203 104° East 384 442 17,200 -2,040 Descending Albuquerque Center
06:19PM 33.2731 -113.1033 99° East 363 418 15,100 -1,680 Descending Albuquerque Center
06:20PM 33.2764 -112.9878 88° East 350 403 13,800 -1,500 Descending Albuquerque Center
06:21PM 33.2789 -112.8786 88° East 335 386 12,100 -1,440 Descending Albuquerque Center
06:22PM 33.2958 -112.7792 78° East 312 359 10,900 -1,020 Descending Albuquerque Center
06:23PM 33.3286 -112.6908 66° East 293 337 10,000 -780 Descending Albuquerque Center
06:24PM 33.3589 -112.6133 65° Northeast 265 305 9,300 -900 Descending Albuquerque Center
06:26PM 33.3900 -112.5306 66° East 257 296 8,200 -960 Descending Albuquerque Center
06:27PM 33.4164 -112.4592 66° East 238 274 7,400 -1,020 Descending Albuquerque Center
06:28PM 33.4417 -112.3728 71° East 232 267 6,100 -1,020 Descending Albuquerque Center
06:29PM 33.4403 -112.2967 91° East 230 265 5,300 -1,020 Descending Albuquerque Center
06:30PM 33.4408 -112.2203 89° East 230 265 4,100 -1,080 Descending Albuquerque Center
06:31PM 33.4406 -112.1517 90° East 213 245 3,100 -960 Descending Albuquerque Center
06:31PM 33.4333 -112.1167 104° East 164 189 2,500 -840 Descending Phoenix TRACON
06:32PM 33.4333 -112.0667 90° East 144 166 1,800 -720 Descending Phoenix TRACON